Time;durP1;ratioP1;P1;durP2;ratioP2;P2;SDS_P1;SDS_P2;PMS_P1;PMS_P2;Temp;Humidity;BMP_temperature;BMP_pressure;BME280_temperature;BME280_humidity;BME280_pressure;Samples;Min_cycle;Max_cycle;Signal;HPM_P1;HPM_P2
2022/06/09 00:01:23;;;;;;;13.27;2.23;;;16.00;99.90;;;;;;5095690;28;20470;-74
2022/06/09 00:03:55;;;;;;;12.63;2.83;;;15.90;99.90;;;;;;5095967;28;20439;-73
2022/06/09 00:06:25;;;;;;;14.83;2.80;;;15.90;99.90;;;;;;5095890;28;20440;-74
2022/06/09 00:08:54;;;;;;;8.00;2.23;;;15.90;99.90;;;;;;5095769;28;20572;-75
2022/06/09 00:11:24;;;;;;;9.90;2.10;;;15.90;99.90;;;;;;5095782;28;20468;-74
2022/06/09 00:13:51;;;;;;;9.30;2.90;;;15.80;99.90;;;;;;5095797;28;20428;-74
2022/06/09 00:16:18;;;;;;;6.17;2.20;;;15.80;99.90;;;;;;5095590;28;20444;-75
2022/06/09 00:18:45;;;;;;;7.70;2.00;;;15.80;99.90;;;;;;5095296;28;20448;-75
2022/06/09 00:21:12;;;;;;;7.67;1.90;;;15.70;99.90;;;;;;5095106;28;20988;-74
2022/06/09 00:23:41;;;;;;;5.03;1.57;;;15.70;99.90;;;;;;5095538;28;20459;-74
2022/06/09 00:26:08;;;;;;;8.37;2.37;;;15.70;99.90;;;;;;5094582;28;20443;-74
2022/06/09 00:28:35;;;;;;;9.60;2.20;;;15.70;99.90;;;;;;5095015;28;21003;-75
2022/06/09 00:31:02;;;;;;;6.13;1.83;;;15.60;99.90;;;;;;5095519;28;20463;-74
2022/06/09 00:33:29;;;;;;;8.17;1.90;;;15.60;99.90;;;;;;5095153;28;20467;-74
2022/06/09 00:35:55;;;;;;;5.67;2.10;;;15.60;99.90;;;;;;5095368;28;20432;-74
2022/06/09 00:38:22;;;;;;;6.23;2.10;;;15.60;99.90;;;;;;5095256;28;20446;-74
2022/06/09 00:40:50;;;;;;;8.07;2.30;;;15.50;99.90;;;;;;5095510;28;20464;-74
2022/06/09 00:43:17;;;;;;;11.53;2.30;;;15.50;99.90;;;;;;5095342;28;20450;-74
2022/06/09 00:45:50;;;;;;;5.20;2.07;;;15.60;99.90;;;;;;5095051;28;20448;-75
2022/06/09 00:48:26;;;;;;;9.67;2.50;;;15.50;99.90;;;;;;5095176;28;20472;-74
2022/06/09 00:50:58;;;;;;;8.20;2.33;;;15.50;99.90;;;;;;5094632;28;20437;-74
2022/06/09 00:53:29;;;;;;;10.67;2.80;;;15.50;99.90;;;;;;5096185;28;20189;-74
2022/06/09 00:56:00;;;;;;;13.47;2.93;;;15.50;99.90;;;;;;5096522;28;20432;-74
2022/06/09 00:58:29;;;;;;;5.83;1.87;;;15.50;99.90;;;;;;5098509;28;20427;-74
2022/06/09 01:00:59;;;;;;;12.93;2.40;;;15.50;99.90;;;;;;5095164;28;20509;-74
2022/06/09 01:03:29;;;;;;;6.70;2.20;;;15.50;99.90;;;;;;5094822;28;20454;-73
2022/06/09 01:06:03;;;;;;;5.03;2.67;;;15.40;99.90;;;;;;5094750;28;20428;-74
2022/06/09 01:08:32;;;;;;;11.87;2.73;;;15.50;99.90;;;;;;5094324;28;20460;-74
2022/06/09 01:11:00;;;;;;;7.10;2.33;;;15.50;99.90;;;;;;5094487;28;20470;-73
2022/06/09 01:13:27;;;;;;;11.00;2.40;;;15.50;99.90;;;;;;5094262;28;20440;-74
2022/06/09 01:16:01;;;;;;;7.43;2.23;;;15.50;99.90;;;;;;5094520;28;20443;-74
2022/06/09 01:18:39;;;;;;;11.50;3.03;;;15.40;99.90;;;;;;5094232;28;20810;-74
2022/06/09 01:21:14;;;;;;;7.17;2.53;;;15.40;99.90;;;;;;5094398;28;20503;-73
2022/06/09 01:24:19;;;;;;;11.17;3.40;;;15.40;99.90;;;;;;5094442;28;20435;-73
2022/06/09 01:27:12;;;;;;;11.83;2.57;;;15.50;99.90;;;;;;5053449;28;20459;-74
2022/06/09 01:29:48;;;;;;;12.50;3.07;;;15.40;99.90;;;;;;5094220;28;20479;-75
2022/06/09 01:32:23;;;;;;;14.70;3.47;;;15.40;99.90;;;;;;5094204;28;20466;-74
2022/06/09 01:35:03;;;;;;;11.33;2.53;;;15.40;99.90;;;;;;5093914;28;20455;-74
2022/06/09 01:37:35;;;;;;;8.97;2.27;;;15.40;99.90;;;;;;5093844;28;20915;-74
2022/06/09 01:40:05;;;;;;;9.30;3.47;;;15.40;99.90;;;;;;5094103;28;20451;-74
2022/06/09 01:42:34;;;;;;;14.73;3.53;;;15.40;99.90;;;;;;5093600;28;20444;-75
2022/06/09 01:45:04;;;;;;;8.33;2.87;;;15.40;99.90;;;;;;5094098;28;20448;-75
2022/06/09 01:47:44;;;;;;;8.63;2.43;;;15.40;99.90;;;;;;5094012;28;20443;-75
2022/06/09 01:50:15;;;;;;;9.70;2.80;;;15.30;99.90;;;;;;5093860;28;20837;-74
2022/06/09 01:52:44;;;;;;;11.80;3.40;;;15.30;99.90;;;;;;5093701;28;20808;-74
2022/06/09 01:55:16;;;;;;;9.00;2.80;;;15.30;99.90;;;;;;5093951;28;20440;-74
2022/06/09 01:57:44;;;;;;;8.63;3.50;;;15.40;99.90;;;;;;5094035;28;20427;-74
2022/06/09 02:00:13;;;;;;;10.37;3.27;;;15.40;99.90;;;;;;5093925;28;20439;-74
2022/06/09 02:02:46;;;;;;;8.70;2.93;;;15.40;99.90;;;;;;5093957;28;20443;-74
2022/06/09 02:05:18;;;;;;;11.73;3.57;;;15.40;99.90;;;;;;5094206;28;20489;-74
2022/06/09 02:07:47;;;;;;;10.33;3.67;;;15.40;99.90;;;;;;5093803;28;20485;-74
2022/06/09 02:10:20;;;;;;;17.47;3.07;;;15.30;99.90;;;;;;5093326;28;20949;-74
2022/06/09 02:12:48;;;;;;;10.17;3.70;;;15.40;99.90;;;;;;5093767;28;20436;-75
2022/06/09 02:15:18;;;;;;;9.37;3.10;;;15.40;99.90;;;;;;5093612;28;20455;-75
2022/06/09 02:17:49;;;;;;;10.20;3.37;;;15.40;99.90;;;;;;5093663;28;20450;-75
2022/06/09 02:20:20;;;;;;;10.50;3.07;;;15.40;99.90;;;;;;5093664;28;20432;-74
2022/06/09 02:22:47;;;;;;;12.53;4.07;;;15.40;99.90;;;;;;5093603;28;20451;-75
2022/06/09 02:25:13;;;;;;;13.23;4.20;;;15.40;99.90;;;;;;5093620;28;20474;-75
2022/06/09 02:27:40;;;;;;;12.23;3.60;;;15.40;99.90;;;;;;5093579;28;20466;-75
2022/06/09 02:30:08;;;;;;;14.00;3.63;;;15.40;99.90;;;;;;5093465;28;20471;-74
2022/06/09 02:32:35;;;;;;;8.80;2.70;;;15.40;99.90;;;;;;5093555;28;20444;-75
2022/06/09 02:35:04;;;;;;;10.80;3.87;;;15.40;99.90;;;;;;5093214;28;20459;-74
2022/06/09 02:37:31;;;;;;;13.20;3.80;;;15.40;99.90;;;;;;5093644;28;20452;-74
2022/06/09 02:39:58;;;;;;;13.40;4.70;;;15.40;99.90;;;;;;5093387;28;20497;-75
2022/06/09 02:42:25;;;;;;;15.87;4.47;;;15.40;99.90;;;;;;5093563;28;20462;-74
2022/06/09 02:44:52;;;;;;;13.50;4.20;;;15.40;99.90;;;;;;5093356;28;20444;-75
2022/06/09 02:47:19;;;;;;;10.60;4.80;;;15.40;99.90;;;;;;5093443;28;20457;-75
2022/06/09 02:49:46;;;;;;;10.40;4.83;;;15.40;99.90;;;;;;5097073;28;21051;-75
2022/06/09 02:52:14;;;;;;;12.93;4.30;;;15.40;99.90;;;;;;5097229;28;20471;-74
2022/06/09 02:54:41;;;;;;;10.03;4.70;;;15.40;99.90;;;;;;5097280;28;20450;-74
2022/06/09 02:57:08;;;;;;;14.13;4.30;;;15.50;99.90;;;;;;5097331;28;20447;-74
2022/06/09 02:59:34;;;;;;;15.73;5.83;;;15.50;99.90;;;;;;5096929;28;20937;-75
2022/06/09 03:02:01;;;;;;;14.77;5.43;;;15.40;99.90;;;;;;5096994;28;20470;-74
2022/06/09 03:04:28;;;;;;;15.70;4.70;;;15.40;99.90;;;;;;5097116;28;20454;-74
2022/06/09 03:06:55;;;;;;;19.73;5.90;;;15.40;99.90;;;;;;5097072;28;20450;-74
2022/06/09 03:09:23;;;;;;;17.90;6.47;;;15.40;99.90;;;;;;5096988;28;20524;-74
2022/06/09 03:11:50;;;;;;;15.43;4.73;;;15.40;99.90;;;;;;5096562;28;20913;-74
2022/06/09 03:14:17;;;;;;;18.20;5.63;;;15.40;99.90;;;;;;5096789;28;20446;-75
2022/06/09 03:16:44;;;;;;;9.60;4.57;;;15.40;99.90;;;;;;5096632;28;20956;-75
2022/06/09 03:19:11;;;;;;;11.90;5.20;;;15.40;99.90;;;;;;5096882;28;20439;-75
2022/06/09 03:21:38;;;;;;;12.90;5.97;;;15.40;99.90;;;;;;5096768;28;20472;-75
2022/06/09 03:24:06;;;;;;;21.00;5.90;;;15.40;99.90;;;;;;5096927;28;20444;-75
2022/06/09 03:26:34;;;;;;;16.37;5.20;;;15.40;99.90;;;;;;5096942;28;20439;-75
2022/06/09 03:29:00;;;;;;;13.67;5.67;;;15.40;99.90;;;;;;5096964;28;20483;-75
2022/06/09 03:31:27;;;;;;;20.77;5.90;;;15.40;99.90;;;;;;5097767;28;20463;-74
2022/06/09 03:33:54;;;;;;;21.20;6.23;;;15.30;99.90;;;;;;5097797;28;20463;-74
2022/06/09 03:36:21;;;;;;;13.50;5.03;;;15.30;99.90;;;;;;5100256;28;20514;-75
2022/06/09 03:38:48;;;;;;;20.90;6.07;;;15.30;99.90;;;;;;5096840;28;20450;-75
2022/06/09 03:41:14;;;;;;;11.20;5.20;;;15.30;99.90;;;;;;5096296;28;20463;-74
2022/06/09 03:43:42;;;;;;;21.33;5.73;;;15.30;99.90;;;;;;5096342;28;20444;-75
2022/06/09 03:46:12;;;;;;;13.97;5.37;;;15.30;99.90;;;;;;5095989;28;20538;-75
2022/06/09 03:48:38;;;;;;;15.97;6.27;;;15.30;99.90;;;;;;5096303;28;20480;-75
2022/06/09 03:51:05;;;;;;;23.33;5.20;;;15.30;99.90;;;;;;5096099;28;20479;-74
2022/06/09 03:53:32;;;;;;;27.07;7.27;;;15.30;99.90;;;;;;5096185;28;20443;-75
2022/06/09 03:55:59;;;;;;;16.57;6.10;;;15.30;99.90;;;;;;5096052;28;20436;-75
2022/06/09 03:58:26;;;;;;;23.03;7.40;;;15.30;99.90;;;;;;5095910;28;20458;-75
2022/06/09 04:00:55;;;;;;;13.93;5.70;;;15.30;99.90;;;;;;5094593;28;20463;-74
2022/06/09 04:03:22;;;;;;;10.73;5.67;;;15.30;99.90;;;;;;5095902;28;20452;-74
2022/06/09 04:05:48;;;;;;;15.70;6.03;;;15.30;99.90;;;;;;5095570;28;20956;-75
2022/06/09 04:08:15;;;;;;;17.50;6.30;;;15.30;99.90;;;;;;5095663;28;20451;-75
2022/06/09 04:10:42;;;;;;;23.10;7.60;;;15.30;99.90;;;;;;5095737;28;20464;-74
2022/06/09 04:13:09;;;;;;;11.17;6.07;;;15.40;99.90;;;;;;5095891;28;20487;-74
2022/06/09 04:15:37;;;;;;;16.00;5.73;;;15.40;99.90;;;;;;5095828;28;20452;-74
2022/06/09 04:18:06;;;;;;;17.47;7.50;;;15.50;99.90;;;;;;5095580;28;20451;-75
2022/06/09 04:20:33;;;;;;;16.63;5.63;;;15.50;99.90;;;;;;5095536;28;20524;-74
2022/06/09 04:23:00;;;;;;;17.00;6.20;;;15.60;99.90;;;;;;5095606;28;20428;-75
2022/06/09 04:25:27;;;;;;;15.97;6.20;;;15.60;99.90;;;;;;5095501;28;20447;-75
2022/06/09 04:27:54;;;;;;;19.27;6.17;;;15.60;99.90;;;;;;5095500;28;20539;-75
2022/06/09 04:30:22;;;;;;;15.83;7.27;;;15.70;99.90;;;;;;5095033;28;20855;-72
2022/06/09 04:32:49;;;;;;;19.77;8.10;;;15.60;99.90;;;;;;5095476;28;20447;-74
2022/06/09 04:35:17;;;;;;;14.60;6.43;;;15.60;99.90;;;;;;5095259;28;20538;-74
2022/06/09 04:38:03;;;;;;;14.87;6.60;;;15.70;99.90;;;;;;5095521;28;20444;-72
2022/06/09 04:40:32;;;;;;;20.10;6.37;;;15.80;99.90;;;;;;5094956;28;20908;-72
2022/06/09 04:42:59;;;;;;;17.37;6.93;;;15.70;99.90;;;;;;5095260;28;20960;-71
2022/06/09 04:45:26;;;;;;;17.90;7.50;;;15.80;99.90;;;;;;5095255;28;20816;-72
2022/06/09 04:47:53;;;;;;;16.23;5.50;;;15.90;99.90;;;;;;5095606;28;20435;-73
2022/06/09 04:50:22;;;;;;;17.50;6.90;;;15.90;99.90;;;;;;5094800;28;20506;-73
2022/06/09 04:52:49;;;;;;;17.63;6.20;;;16.00;99.90;;;;;;5094764;28;20827;-73
2022/06/09 04:55:16;;;;;;;15.70;6.17;;;16.10;99.90;;;;;;5094952;28;20447;-73
2022/06/09 04:57:43;;;;;;;14.87;6.10;;;16.20;99.90;;;;;;5094913;28;20455;-72
2022/06/09 05:00:13;;;;;;;20.90;7.60;;;16.30;99.90;;;;;;5095207;28;20443;-73
2022/06/09 05:02:40;;;;;;;15.73;6.70;;;16.30;99.90;;;;;;5095521;28;20480;-75
2022/06/09 05:05:10;;;;;;;15.97;5.83;;;16.30;99.90;;;;;;5094478;28;20447;-74
2022/06/09 05:07:38;;;;;;;22.03;6.80;;;16.40;99.90;;;;;;5094640;28;20444;-75
2022/06/09 05:10:05;;;;;;;19.53;6.67;;;16.40;99.90;;;;;;5094653;28;20488;-75
2022/06/09 05:12:32;;;;;;;18.10;5.60;;;16.50;99.90;;;;;;5094221;28;20446;-74
2022/06/09 05:14:58;;;;;;;13.60;5.93;;;16.60;99.90;;;;;;5094639;28;20447;-74
2022/06/09 05:17:25;;;;;;;12.47;6.13;;;16.70;99.90;;;;;;5094660;28;20446;-75
2022/06/09 05:19:52;;;;;;;14.53;5.93;;;16.80;99.90;;;;;;5094555;28;20432;-75
2022/06/09 05:22:19;;;;;;;20.70;6.67;;;16.80;99.90;;;;;;5094369;28;20474;-74
2022/06/09 05:24:47;;;;;;;17.83;7.63;;;16.90;99.90;;;;;;5094127;28;20952;-74
2022/06/09 05:27:14;;;;;;;10.67;6.23;;;17.00;99.90;;;;;;5094383;28;20463;-74
2022/06/09 05:29:41;;;;;;;15.70;7.27;;;17.00;99.90;;;;;;5094175;28;20502;-74
2022/06/09 05:32:09;;;;;;;14.13;6.47;;;17.00;99.90;;;;;;5094284;28;20471;-72
2022/06/09 05:34:36;;;;;;;16.87;7.07;;;17.00;99.90;;;;;;5093930;28;20816;-72
2022/06/09 05:37:03;;;;;;;13.53;7.60;;;17.00;99.90;;;;;;5093849;28;20932;-72
2022/06/09 05:45:02;;;;;;;17.23;7.57;;;16.70;99.90;;;;;;5094058;28;20975;-74
2022/06/09 05:47:28;;;;;;;17.60;6.80;;;16.70;99.90;;;;;;5094074;28;20500;-75
2022/06/09 05:49:55;;;;;;;15.60;7.30;;;16.70;99.90;;;;;;5093890;28;20475;-74
2022/06/09 05:52:24;;;;;;;14.17;7.53;;;16.70;99.90;;;;;;5093955;28;20540;-74
2022/06/09 05:54:51;;;;;;;15.33;8.20;;;16.70;99.90;;;;;;5093964;28;20505;-75
2022/06/09 05:57:20;;;;;;;23.57;9.70;;;16.70;99.90;;;;;;5094185;28;20473;-75
2022/06/09 05:59:48;;;;;;;15.47;8.13;;;16.80;99.90;;;;;;5094196;28;20489;-75
2022/06/09 06:02:16;;;;;;;19.07;8.67;;;16.90;99.90;;;;;;5094074;28;20477;-74
2022/06/09 06:04:44;;;;;;;13.23;8.63;;;16.90;99.90;;;;;;5094459;28;20455;-74
2022/06/09 06:07:11;;;;;;;23.20;9.80;;;16.90;99.90;;;;;;5095052;28;20804;-74
2022/06/09 06:09:38;;;;;;;20.00;9.07;;;16.90;99.90;;;;;;5095067;28;20476;-75
2022/06/09 06:12:05;;;;;;;14.70;9.60;;;16.90;99.90;;;;;;5095577;28;20474;-74
2022/06/09 06:14:33;;;;;;;18.80;9.53;;;16.90;99.90;;;;;;5095891;28;20937;-75
2022/06/09 06:17:01;;;;;;;20.33;11.03;;;16.90;99.90;;;;;;5098000;28;20450;-75
2022/06/09 06:19:28;;;;;;;23.60;11.00;;;17.00;99.90;;;;;;5095685;28;20450;-74
2022/06/09 06:21:55;;;;;;;19.07;10.20;;;16.90;99.90;;;;;;5093636;28;21001;-74
2022/06/09 06:24:24;;;;;;;19.03;10.00;;;17.00;99.90;;;;;;5097515;28;20932;-74
2022/06/09 06:26:52;;;;;;;16.97;9.70;;;17.10;99.90;;;;;;5097494;28;20492;-75
2022/06/09 06:29:22;;;;;;;15.87;10.50;;;17.10;99.90;;;;;;5097409;28;20479;-74
2022/06/09 06:31:50;;;;;;;16.77;10.57;;;17.00;99.40;;;;;;5097328;28;20843;-74
2022/06/09 06:34:17;;;;;;;15.30;10.13;;;17.00;99.90;;;;;;5099475;28;20469;-72
2022/06/09 06:36:44;;;;;;;16.60;10.90;;;17.10;99.80;;;;;;5097852;28;20444;-74
2022/06/09 06:39:11;;;;;;;17.60;10.70;;;17.10;99.70;;;;;;5097313;28;20901;-75
2022/06/09 06:41:39;;;;;;;18.97;10.30;;;17.20;99.50;;;;;;5097700;28;20471;-75
2022/06/09 06:44:06;;;;;;;14.67;9.47;;;17.30;99.80;;;;;;5097555;28;20444;-74
2022/06/09 06:46:33;;;;;;;19.77;10.50;;;17.40;99.30;;;;;;5097202;28;20439;-72
2022/06/09 06:49:01;;;;;;;19.47;10.27;;;17.40;99.10;;;;;;5097562;28;20439;-72
2022/06/09 06:51:28;;;;;;;21.17;9.60;;;17.30;99.20;;;;;;5097316;28;20825;-72
2022/06/09 06:53:55;;;;;;;13.80;10.03;;;17.40;99.40;;;;;;5097266;28;20447;-72
2022/06/09 06:56:21;;;;;;;16.63;10.63;;;17.40;99.40;;;;;;5097236;28;20446;-72
2022/06/09 06:58:48;;;;;;;17.57;9.43;;;17.50;99.20;;;;;;5097817;28;20443;-72
2022/06/09 07:01:15;;;;;;;23.97;10.57;;;17.50;99.60;;;;;;5097131;28;20562;-72
2022/06/09 07:03:42;;;;;;;19.80;9.60;;;17.60;99.50;;;;;;5097171;28;20436;-72
2022/06/09 07:06:10;;;;;;;19.90;9.60;;;17.80;98.80;;;;;;5097157;28;20448;-72
2022/06/09 07:08:37;;;;;;;21.77;11.00;;;17.90;98.10;;;;;;5096793;28;20443;-72
2022/06/09 07:11:05;;;;;;;16.67;9.40;;;17.90;97.60;;;;;;5096869;28;20494;-72
2022/06/09 07:13:32;;;;;;;16.50;8.33;;;18.00;97.60;;;;;;5096981;28;20447;-72
2022/06/09 07:15:58;;;;;;;15.20;10.00;;;17.90;97.60;;;;;;5096953;28;20485;-72
2022/06/09 07:18:25;;;;;;;15.00;9.07;;;17.80;97.70;;;;;;5097020;28;20815;-72
2022/06/09 07:20:52;;;;;;;17.90;10.30;;;17.80;97.60;;;;;;5096892;28;20467;-72
2022/06/09 07:23:20;;;;;;;17.60;10.00;;;17.80;98.00;;;;;;5096911;28;20983;-72
2022/06/09 07:25:47;;;;;;;15.67;9.63;;;17.80;97.70;;;;;;5097008;28;20448;-72
2022/06/09 07:28:14;;;;;;;17.37;10.10;;;17.80;98.00;;;;;;5097127;28;20444;-72
2022/06/09 07:30:41;;;;;;;20.30;10.50;;;17.90;98.40;;;;;;5096610;28;20494;-72
2022/06/09 07:33:08;;;;;;;14.17;9.67;;;17.90;98.50;;;;;;5096616;28;20443;-72
2022/06/09 07:35:37;;;;;;;11.37;9.27;;;17.90;98.10;;;;;;5095821;28;20460;-72
2022/06/09 07:38:05;;;;;;;12.30;9.30;;;18.00;98.30;;;;;;5096323;28;20949;-71
2022/06/09 07:40:34;;;;;;;18.47;9.70;;;18.10;97.80;;;;;;5096507;28;20460;-72
2022/06/09 07:43:03;;;;;;;15.93;10.57;;;18.00;97.50;;;;;;5096385;28;20447;-72
2022/06/09 07:45:30;;;;;;;17.00;10.10;;;18.00;97.60;;;;;;5096447;28;20497;-72
2022/06/09 07:47:57;;;;;;;12.07;9.10;;;18.10;97.10;;;;;;5096301;28;20450;-72
2022/06/09 07:50:24;;;;;;;13.33;9.60;;;18.10;96.90;;;;;;5096225;28;20467;-73
2022/06/09 07:52:51;;;;;;;13.40;9.87;;;18.20;96.70;;;;;;5095914;28;20851;-71
2022/06/09 07:55:18;;;;;;;16.60;10.67;;;18.40;97.10;;;;;;5096214;28;20447;-71
2022/06/09 07:57:46;;;;;;;14.70;8.93;;;18.50;96.50;;;;;;5095878;28;20504;-71
2022/06/09 08:00:14;;;;;;;16.37;9.07;;;18.70;96.70;;;;;;5096030;28;20444;-71
2022/06/09 08:02:42;;;;;;;9.80;8.20;;;18.90;96.50;;;;;;5096061;28;20473;-70
2022/06/09 08:05:10;;;;;;;14.30;8.43;;;18.90;95.60;;;;;;5096065;28;20443;-71
2022/06/09 08:07:37;;;;;;;11.93;8.03;;;19.00;95.60;;;;;;5096045;28;20933;-71
2022/06/09 08:10:06;;;;;;;12.40;7.90;;;19.20;95.00;;;;;;5095559;28;20925;-71
2022/06/09 08:12:33;;;;;;;12.43;7.10;;;19.40;95.70;;;;;;5095872;28;20470;-72
2022/06/09 08:15:02;;;;;;;9.37;6.97;;;19.70;94.10;;;;;;5095631;28;20454;-73
2022/06/09 08:17:29;;;;;;;12.43;7.27;;;20.00;93.20;;;;;;5095816;28;20908;-73
2022/06/09 08:19:56;;;;;;;12.43;6.97;;;20.20;91.80;;;;;;5095519;28;20439;-73
2022/06/09 08:22:23;;;;;;;10.20;6.37;;;20.40;91.30;;;;;;5095530;28;20474;-72
2022/06/09 08:24:50;;;;;;;8.10;5.73;;;20.40;90.30;;;;;;5095824;28;20452;-72
2022/06/09 08:27:16;;;;;;;7.87;5.60;;;20.40;90.40;;;;;;5095784;28;20428;-73
2022/06/09 08:29:43;;;;;;;10.43;5.47;;;20.40;90.70;;;;;;5095794;28;20440;-73
2022/06/09 08:32:11;;;;;;;8.57;6.13;;;20.30;90.30;;;;;;5095432;28;20829;-73
2022/06/09 08:34:39;;;;;;;11.87;5.77;;;20.10;90.20;;;;;;5095158;28;20456;-73
2022/06/09 08:37:06;;;;;;;11.47;6.17;;;20.00;90.60;;;;;;5095381;28;20447;-73
2022/06/09 08:39:33;;;;;;;8.80;6.10;;;19.90;90.90;;;;;;5095598;28;20794;-72
2022/06/09 08:42:15;;;;;;;13.70;7.23;;;19.90;90.90;;;;;;5095061;28;20478;-72
2022/06/09 08:44:47;;;;;;;8.00;5.50;;;20.00;91.90;;;;;;5095514;28;20443;-72
2022/06/09 08:47:23;;;;;;;12.77;7.57;;;20.20;91.90;;;;;;5095488;28;20436;-72
2022/06/09 08:49:58;;;;;;;8.30;7.23;;;20.30;90.90;;;;;;5095247;28;20424;-73
2022/06/09 08:52:42;;;;;;;13.00;7.27;;;20.30;91.10;;;;;;5096071;28;20999;-73
2022/06/09 08:55:26;;;;;;;15.53;8.00;;;20.40;89.70;;;;;;5098530;28;20428;-72
2022/06/09 08:57:54;;;;;;;8.10;6.90;;;20.50;90.10;;;;;;5099602;28;20428;-72
2022/06/09 09:00:23;;;;;;;7.80;6.97;;;20.70;90.20;;;;;;5096771;28;20555;-72
2022/06/09 09:02:57;;;;;;;9.97;6.90;;;20.80;89.30;;;;;;5094934;28;20428;-72
2022/06/09 09:05:29;;;;;;;9.57;5.90;;;20.90;87.90;;;;;;5094862;28;20511;-72
2022/06/09 09:08:00;;;;;;;7.00;6.40;;;20.90;86.10;;;;;;5094814;28;20425;-72
2022/06/09 09:10:36;;;;;;;6.70;6.10;;;21.00;86.70;;;;;;5094297;28;20536;-72
2022/06/09 09:13:15;;;;;;;8.30;6.10;;;21.00;86.10;;;;;;5094461;28;20423;-72
2022/06/09 09:15:46;;;;;;;11.17;5.97;;;21.00;86.50;;;;;;5094729;28;20428;-71
2022/06/09 09:18:25;;;;;;;9.63;6.17;;;21.30;88.70;;;;;;5094588;28;20440;-71
2022/06/09 09:21:04;;;;;;;8.53;5.70;;;21.50;85.40;;;;;;5094757;28;20575;-71
2022/06/09 09:23:38;;;;;;;11.43;4.83;;;21.90;87.50;;;;;;5095370;28;20424;-71
2022/06/09 09:26:13;;;;;;;11.47;5.20;;;22.30;82.60;;;;;;5094299;28;20420;-71
2022/06/09 09:28:47;;;;;;;8.30;4.60;;;22.50;80.80;;;;;;5094486;28;20435;-72
2022/06/09 09:31:23;;;;;;;8.67;4.70;;;22.70;81.40;;;;;;5094189;28;20483;-72
2022/06/09 09:33:52;;;;;;;6.83;4.40;;;22.90;79.40;;;;;;5094127;28;20463;-72
2022/06/09 09:36:22;;;;;;;10.53;5.43;;;22.80;76.80;;;;;;5094323;28;20460;-72
2022/06/09 09:38:54;;;;;;;10.50;5.00;;;22.50;78.10;;;;;;5093941;28;20430;-72
2022/06/09 09:41:33;;;;;;;8.57;4.90;;;22.70;78.90;;;;;;5094193;28;20471;-72
2022/06/09 09:44:00;;;;;;;8.20;4.63;;;22.70;74.30;;;;;;5093872;28;20434;-71
2022/06/09 09:46:32;;;;;;;11.20;5.60;;;22.60;76.40;;;;;;5094087;28;20447;-72
2022/06/09 09:49:15;;;;;;;7.07;4.30;;;22.60;77.80;;;;;;5095048;28;20439;-72
2022/06/09 09:51:44;;;;;;;8.23;4.87;;;22.60;77.60;;;;;;5093815;28;20996;-72
2022/06/09 09:54:20;;;;;;;6.60;3.77;;;22.90;79.70;;;;;;5094039;28;20444;-72
2022/06/09 09:56:47;;;;;;;7.43;4.07;;;23.10;75.70;;;;;;5093866;28;20420;-72
2022/06/09 09:59:22;;;;;;;6.40;4.00;;;23.20;74.10;;;;;;5094341;28;20470;-72
2022/06/09 10:10:13;;;;;;;5.40;3.27;;;24.20;70.60;;;;;;5093834;28;20823;-72
2022/06/09 10:12:40;;;;;;;6.90;3.07;;;24.40;69.50;;;;;;5093974;28;20428;-72
2022/06/09 10:15:16;;;;;;;5.17;3.10;;;24.50;66.00;;;;;;5093600;28;20955;-72
2022/06/09 10:17:50;;;;;;;3.17;2.83;;;24.50;66.40;;;;;;5093545;28;20438;-74
2022/06/09 10:20:30;;;;;;;7.67;5.10;;;24.00;65.60;;;;;;5095056;28;20428;-74
2022/06/09 10:23:27;;;;;;;8.17;4.40;;;23.50;69.10;;;;;;5093473;28;20531;-75
2022/06/09 10:26:00;;;;;;;8.77;4.00;;;22.90;70.60;;;;;;5094675;28;20428;-74
2022/06/09 10:28:34;;;;;;;13.23;4.53;;;22.30;73.60;;;;;;5093417;28;20792;-74
2022/06/09 10:31:09;;;;;;;12.77;3.87;;;22.00;74.90;;;;;;5093846;28;20536;-73
2022/06/09 10:33:41;;;;;;;9.67;3.73;;;21.80;76.70;;;;;;5093550;28;20455;-74
2022/06/09 10:36:16;;;;;;;9.87;3.90;;;21.60;79.30;;;;;;5094017;28;20489;-74
2022/06/09 10:38:47;;;;;;;10.57;3.60;;;21.50;79.70;;;;;;5093773;28;20843;-74
2022/06/09 10:41:20;;;;;;;12.20;4.30;;;21.60;80.80;;;;;;5093692;28;20542;-73
2022/06/09 10:43:54;;;;;;;8.40;3.80;;;21.70;80.60;;;;;;5093613;28;20440;-73
2022/06/09 10:46:32;;;;;;;6.70;3.90;;;21.80;79.80;;;;;;5093484;28;20432;-73
2022/06/09 10:57:38;;;;;;;9.27;3.60;;;23.30;72.50;;;;;;5093506;28;20404;-74
2022/06/09 11:00:12;;;;;;;14.40;4.00;;;23.00;72.30;;;;;;5093346;28;20432;-73
2022/06/09 11:02:40;;;;;;;15.37;5.00;;;22.50;76.00;;;;;;5093422;28;20438;-74
2022/06/09 11:05:08;;;;;;;9.97;4.80;;;22.10;80.90;;;;;;5093365;28;20446;-74
2022/06/09 11:07:50;;;;;;;10.43;4.57;;;21.80;85.20;;;;;;5093303;28;20436;-73
2022/06/09 11:10:26;;;;;;;11.30;4.27;;;21.60;86.70;;;;;;5095435;28;20424;-73
2022/06/09 11:13:20;;;;;;;10.73;5.20;;;21.40;89.00;;;;;;5096745;28;20915;-73
2022/06/09 11:15:53;;;;;;;11.40;4.30;;;21.10;89.60;;;;;;5097064;28;20442;-74
2022/06/09 11:18:31;;;;;;;10.67;5.30;;;20.80;90.70;;;;;;5096971;28;20443;-74
2022/06/09 11:21:08;;;;;;;5.97;4.57;;;20.70;91.90;;;;;;5097195;28;20468;-72
2022/06/09 11:24:06;;;;;;;8.53;5.00;;;20.70;92.40;;;;;;5097214;28;20424;-72
2022/06/09 11:26:42;;;;;;;10.40;4.50;;;20.80;92.20;;;;;;5097120;28;20438;-72
2022/06/09 11:29:25;;;;;;;6.43;4.77;;;20.90;92.10;;;;;;5097659;28;20483;-72
2022/06/09 11:32:01;;;;;;;7.70;4.20;;;20.90;91.60;;;;;;5098651;28;20490;-72
2022/06/09 11:34:50;;;;;;;11.67;4.87;;;20.90;91.30;;;;;;5099533;28;20455;-72
2022/06/09 11:37:39;;;;;;;8.90;5.67;;;20.70;91.40;;;;;;5083693;28;20467;-73
2022/06/09 11:40:17;;;;;;;6.70;4.70;;;20.80;92.80;;;;;;5096230;28;20428;-73
2022/06/09 11:43:06;;;;;;;10.20;5.50;;;20.90;91.30;;;;;;5096452;28;20428;-73
2022/06/09 11:45:38;;;;;;;6.97;4.47;;;21.40;92.40;;;;;;5096447;28;20497;-73
2022/06/09 11:48:10;;;;;;;8.73;4.23;;;22.20;91.10;;;;;;5096275;28;20435;-73
2022/06/09 11:50:41;;;;;;;9.00;3.80;;;22.70;90.40;;;;;;5096164;28;20472;-73
2022/06/09 11:53:08;;;;;;;10.23;4.30;;;23.60;88.10;;;;;;5095953;28;20777;-73
2022/06/09 11:58:45;;;;;;;11.00;3.20;;;25.80;74.40;;;;;;5096142;28;20436;-74
2022/06/09 12:01:32;;;;;;;10.63;2.87;;;26.90;66.80;;;;;;5096119;28;20474;-73
2022/06/09 12:04:12;;;;;;;10.83;3.13;;;27.50;60.80;;;;;;5095769;28;20796;-73
2022/06/09 12:06:57;;;;;;;11.00;3.80;;;27.60;58.10;;;;;;5096097;28;20438;-73
2022/06/09 12:09:34;;;;;;;5.63;2.40;;;27.30;57.30;;;;;;5096113;28;20420;-74
2022/06/09 12:12:05;;;;;;;7.07;2.63;;;27.10;56.20;;;;;;5095504;28;20487;-73
2022/06/09 12:14:33;;;;;;;7.20;3.00;;;27.00;54.70;;;;;;5095950;28;20427;-74
2022/06/09 12:17:08;;;;;;;5.70;3.50;;;26.70;56.60;;;;;;5095561;28;20937;-74
2022/06/09 12:19:37;;;;;;;10.20;4.00;;;26.20;58.10;;;;;;5095391;28;20905;-74
2022/06/09 12:22:47;;;;;;;10.03;3.67;;;25.50;60.50;;;;;;5094391;28;20456;-73
2022/06/09 12:25:32;;;;;;;3.97;1.70;;;24.70;64.90;;;;;;5095758;28;20443;-73
2022/06/09 12:28:03;;;;;;;2.60;1.50;;;23.50;65.40;;;;;;5095631;28;20478;-74
2022/06/09 12:30:37;;;;;;;1.67;1.47;;;22.60;66.50;;;;;;5095642;28;20467;-73
2022/06/09 12:33:35;;;;;;;2.63;1.97;;;21.80;71.20;;;;;;5095571;28;20796;-73
2022/06/09 12:36:06;;;;;;;3.40;2.67;;;21.10;74.90;;;;;;5013258;28;20842;-73
2022/06/09 12:38:36;;;;;;;2.53;1.93;;;20.60;79.60;;;;;;5078740;28;20472;-73
2022/06/09 12:41:23;;;;;;;2.27;1.80;;;20.30;83.40;;;;;;5095424;28;20462;-73
2022/06/09 12:44:02;;;;;;;2.73;2.43;;;20.00;83.70;;;;;;5095945;28;20471;-73
2022/06/09 12:46:33;;;;;;;3.30;2.30;;;19.80;86.30;;;;;;5095031;28;20885;-73
2022/06/09 12:49:14;;;;;;;3.13;1.70;;;19.60;87.90;;;;;;5095292;28;21011;-73
2022/06/09 12:51:41;;;;;;;2.40;2.20;;;19.50;86.50;;;;;;5094766;28;20483;-72
2022/06/09 12:54:18;;;;;;;3.20;1.63;;;19.40;89.20;;;;;;5094997;28;21021;-73
2022/06/09 12:56:52;;;;;;;2.00;1.80;;;19.10;88.40;;;;;;5100833;28;20432;-74
2022/06/09 12:59:26;;;;;;;3.80;2.00;;;19.00;90.00;;;;;;5094995;28;20489;-74
2022/06/09 13:01:57;;;;;;;1.83;1.63;;;18.80;90.10;;;;;;5094700;28;20464;-72
2022/06/09 13:04:26;;;;;;;5.03;1.50;;;18.80;90.10;;;;;;5095021;28;20432;-73
2022/06/09 13:06:54;;;;;;;2.30;1.90;;;18.70;90.00;;;;;;5095008;28;20485;-73
2022/06/09 13:09:23;;;;;;;2.13;1.50;;;18.60;90.40;;;;;;5094710;28;20440;-73
2022/06/09 13:14:40;;;;;;;2.10;1.30;;;18.60;90.70;;;;;;5094600;28;20790;-73
2022/06/09 13:17:11;;;;;;;1.40;1.27;;;18.60;91.20;;;;;;5094804;28;20440;-73
2022/06/09 13:19:39;;;;;;;4.50;1.53;;;18.50;91.40;;;;;;5094810;28;20509;-71
2022/06/09 13:22:12;;;;;;;2.17;1.40;;;18.50;91.00;;;;;;5094383;28;20502;-70
2022/06/09 13:24:42;;;;;;;2.33;1.53;;;18.50;91.40;;;;;;5094247;28;20432;-70
2022/06/09 13:27:13;;;;;;;1.70;1.37;;;18.60;91.60;;;;;;5094547;28;20444;-70